Time;durP1;ratioP1;P1;durP2;ratioP2;P2;SDS_P1;SDS_P2;PMS_P1;PMS_P2;Temp;Humidity;BMP_temperature;BMP_pressure;BME280_temperature;BME280_humidity;BME280_pressure;Samples;Min_cycle;Max_cycle;Signal;HPM_P1;HPM_P2
2021/07/21 00:02:07;;;;;;;10.80;6.80;;;15.40;66.10;;;;;;5035241;28;20031;-80
2021/07/21 00:04:33;;;;;;;13.52;6.43;;;15.30;66.50;;;;;;5014743;28;20043;-80
2021/07/21 00:06:59;;;;;;;9.68;7.20;;;15.20;65.90;;;;;;5026014;28;21365;-80
2021/07/21 00:09:24;;;;;;;12.90;6.80;;;14.80;68.00;;;;;;5023466;28;20037;-80
2021/07/21 00:14:35;;;;;;;8.35;5.68;;;14.40;70.80;;;;;;5048674;28;20093;-80
2021/07/21 00:17:07;;;;;;;10.68;5.93;;;14.60;69.30;;;;;;5037409;28;20036;-80
2021/07/21 00:22:16;;;;;;;6.22;4.82;;;14.90;67.40;;;;;;5047022;28;20032;-80
2021/07/21 00:24:42;;;;;;;7.35;5.30;;;14.60;69.60;;;;;;5017334;28;20392;-80
2021/07/21 00:27:08;;;;;;;15.57;7.45;;;14.80;69.70;;;;;;5046725;28;20177;-80
2021/07/21 00:29:34;;;;;;;11.95;6.70;;;14.50;68.90;;;;;;5015907;28;20032;-80
2021/07/21 00:32:00;;;;;;;11.60;7.35;;;14.30;70.70;;;;;;5036045;28;20028;-80
2021/07/21 00:34:25;;;;;;;11.27;7.72;;;14.40;69.70;;;;;;5029299;28;20527;-80
2021/07/21 00:36:51;;;;;;;9.45;6.90;;;14.30;69.70;;;;;;5035617;28;20033;-79
2021/07/21 00:39:16;;;;;;;10.90;7.05;;;14.30;69.50;;;;;;5023150;28;20484;-80
2021/07/21 00:41:42;;;;;;;10.85;6.57;;;14.20;69.60;;;;;;5019391;28;20036;-80
2021/07/21 00:44:07;;;;;;;10.57;7.50;;;14.20;69.80;;;;;;5015421;28;20036;-80
2021/07/21 00:46:35;;;;;;;11.77;7.43;;;14.20;70.50;;;;;;5039447;28;20083;-80
2021/07/21 00:49:00;;;;;;;12.20;7.45;;;14.20;69.80;;;;;;5015907;28;20115;-80
2021/07/21 00:51:26;;;;;;;10.82;7.18;;;14.10;69.80;;;;;;5045131;28;20539;-80
2021/07/21 00:53:51;;;;;;;6.68;4.97;;;14.10;69.90;;;;;;5030670;28;20563;-79
2021/07/21 00:56:17;;;;;;;6.75;4.50;;;14.00;69.80;;;;;;5044152;28;20033;-79
2021/07/21 00:58:42;;;;;;;7.03;4.88;;;14.00;69.80;;;;;;5031448;28;20024;-79
2021/07/21 01:01:08;;;;;;;6.43;4.95;;;14.10;69.80;;;;;;5029672;28;20043;-79
2021/07/21 01:03:33;;;;;;;8.43;4.90;;;14.30;69.60;;;;;;5042475;28;20032;-80
2021/07/21 01:06:00;;;;;;;9.25;5.50;;;14.30;69.90;;;;;;5050245;28;20032;-80
2021/07/21 01:08:26;;;;;;;8.60;4.75;;;14.30;69.90;;;;;;5007963;28;20124;-79
2021/07/21 01:10:56;;;;;;;9.90;5.97;;;14.20;70.10;;;;;;5032920;28;20115;-79
2021/07/21 01:13:28;;;;;;;9.48;4.47;;;14.20;70.70;;;;;;5039770;28;20542;-79
2021/07/21 01:15:57;;;;;;;9.18;5.85;;;14.10;70.30;;;;;;5033660;28;20033;-79
2021/07/21 01:18:30;;;;;;;14.05;6.45;;;14.10;70.70;;;;;;5043758;28;20029;-79
2021/07/21 01:21:12;;;;;;;7.05;4.78;;;13.90;70.40;;;;;;5029237;28;20064;-79
2021/07/21 01:23:44;;;;;;;12.20;6.50;;;13.80;71.00;;;;;;5057352;28;20025;-79
2021/07/21 01:26:11;;;;;;;8.57;4.63;;;13.60;72.00;;;;;;5043831;28;20025;-79
2021/07/21 01:28:38;;;;;;;11.15;6.57;;;13.70;71.10;;;;;;5026837;28;20037;-80
2021/07/21 01:31:04;;;;;;;12.07;6.22;;;13.60;70.70;;;;;;5033425;28;20043;-79
2021/07/21 01:33:30;;;;;;;9.68;6.15;;;13.30;71.80;;;;;;5010212;28;20045;-79
2021/07/21 01:36:00;;;;;;;7.30;5.18;;;13.20;72.70;;;;;;5033527;28;20043;-79
2021/07/21 01:38:31;;;;;;;11.75;6.43;;;13.40;71.70;;;;;;5028030;28;20032;-79
2021/07/21 01:40:59;;;;;;;9.35;6.55;;;13.40;71.00;;;;;;5014758;28;20029;-80
2021/07/21 01:43:30;;;;;;;15.88;7.18;;;13.20;71.40;;;;;;5032343;28;20102;-80
2021/07/21 01:45:56;;;;;;;10.95;7.43;;;13.00;73.20;;;;;;5016765;28;20647;-79
2021/07/21 01:48:22;;;;;;;13.15;7.63;;;13.10;72.00;;;;;;5029334;28;20045;-79
2021/07/21 01:50:49;;;;;;;12.20;7.18;;;13.10;72.50;;;;;;5029297;28;20033;-79
2021/07/21 01:53:14;;;;;;;10.95;6.15;;;12.80;75.00;;;;;;5052042;28;20533;-79
2021/07/21 01:55:40;;;;;;;12.18;6.97;;;13.10;72.50;;;;;;5016240;28;20147;-79
2021/07/21 01:58:05;;;;;;;13.20;7.20;;;13.00;72.40;;;;;;5031843;28;20064;-79
2021/07/21 02:00:31;;;;;;;11.40;7.70;;;12.70;74.60;;;;;;5030903;28;20035;-79
2021/07/21 02:02:57;;;;;;;10.93;7.40;;;12.90;73.50;;;;;;5035923;28;20064;-79
2021/07/21 02:05:23;;;;;;;11.52;7.53;;;12.80;73.50;;;;;;5023501;28;20037;-79
2021/07/21 02:07:48;;;;;;;13.48;7.60;;;12.80;72.50;;;;;;5020657;28;20040;-80
2021/07/21 02:10:22;;;;;;;12.57;7.60;;;12.70;74.60;;;;;;5044748;28;20045;-79
2021/07/21 02:12:58;;;;;;;12.20;7.00;;;12.70;73.60;;;;;;5026734;28;20029;-79
2021/07/21 02:15:24;;;;;;;9.63;5.78;;;12.70;75.10;;;;;;5021494;28;20411;-79
2021/07/21 02:17:50;;;;;;;10.70;7.07;;;12.80;72.80;;;;;;5036892;28;20029;-79
2021/07/21 02:20:15;;;;;;;11.43;7.10;;;12.80;72.40;;;;;;5050493;28;20033;-79
2021/07/21 02:22:42;;;;;;;13.23;8.32;;;12.80;72.90;;;;;;5019351;28;20059;-79
2021/07/21 02:25:08;;;;;;;8.93;5.93;;;12.70;74.40;;;;;;5029514;28;20059;-80
2021/07/21 02:27:34;;;;;;;7.35;5.90;;;12.80;72.80;;;;;;5031864;28;20568;-79
2021/07/21 02:30:00;;;;;;;10.93;6.90;;;12.90;72.30;;;;;;5049178;28;20044;-79
2021/07/21 02:32:31;;;;;;;7.18;5.20;;;12.80;72.00;;;;;;5035560;28;20341;-79
2021/07/21 02:34:57;;;;;;;9.45;6.18;;;12.80;72.10;;;;;;5048403;28;20446;-79
2021/07/21 02:37:25;;;;;;;6.55;4.85;;;12.80;72.00;;;;;;5032823;28;20033;-79
2021/07/21 02:39:52;;;;;;;8.65;5.32;;;12.80;72.20;;;;;;5013450;28;20025;-79
2021/07/21 02:42:17;;;;;;;8.88;6.18;;;12.80;72.60;;;;;;5025565;28;20037;-79
2021/07/21 02:44:43;;;;;;;7.88;5.10;;;12.80;73.40;;;;;;5029269;28;20404;-79
2021/07/21 02:47:09;;;;;;;10.07;5.40;;;13.00;74.10;;;;;;5036328;28;20271;-79
2021/07/21 02:49:35;;;;;;;7.63;5.15;;;12.90;74.30;;;;;;5054827;28;20029;-79
2021/07/21 02:52:11;;;;;;;7.97;5.30;;;12.90;74.40;;;;;;5033976;28;20586;-79
2021/07/21 02:54:42;;;;;;;7.50;5.53;;;12.90;73.20;;;;;;5027303;28;20361;-79
2021/07/21 02:57:15;;;;;;;8.25;5.85;;;12.70;72.80;;;;;;5058114;28;20032;-79
2021/07/21 02:59:48;;;;;;;6.95;4.85;;;12.60;73.30;;;;;;5015464;28;20020;-79
2021/07/21 03:02:14;;;;;;;10.07;5.65;;;12.60;73.10;;;;;;5053493;28;20139;-79
2021/07/21 03:04:40;;;;;;;6.03;4.47;;;12.60;73.80;;;;;;5016592;28;20036;-80
2021/07/21 03:07:06;;;;;;;14.02;5.85;;;12.50;74.00;;;;;;5054451;28;20504;-79
2021/07/21 03:09:31;;;;;;;10.27;5.45;;;12.40;73.40;;;;;;5015482;28;20120;-79
2021/07/21 03:11:58;;;;;;;8.55;6.30;;;12.40;74.80;;;;;;5049430;28;20493;-80
2021/07/21 03:14:24;;;;;;;8.13;5.10;;;12.40;74.90;;;;;;5026005;28;20067;-79
2021/07/21 03:16:51;;;;;;;15.90;6.50;;;12.60;75.40;;;;;;5020631;28;20055;-79
2021/07/21 03:19:17;;;;;;;7.07;4.03;;;12.70;75.40;;;;;;5039752;28;20033;-79
2021/07/21 03:21:42;;;;;;;7.57;4.45;;;12.70;77.00;;;;;;5020887;28;20028;-79
2021/07/21 03:24:08;;;;;;;7.07;4.90;;;12.70;76.40;;;;;;5031980;28;20368;-79
2021/07/21 03:26:34;;;;;;;7.35;5.55;;;12.60;75.40;;;;;;5031185;28;20500;-80
2021/07/21 03:28:59;;;;;;;6.82;4.22;;;12.50;76.10;;;;;;5017042;28;20441;-80
2021/07/21 03:31:25;;;;;;;8.32;5.50;;;12.40;76.10;;;;;;5030438;28;20543;-79
2021/07/21 03:34:04;;;;;;;10.57;5.10;;;12.60;78.40;;;;;;5016988;28;20131;-79
2021/07/21 03:36:33;;;;;;;8.32;5.13;;;12.40;76.30;;;;;;5031391;28;20028;-79
2021/07/21 03:38:58;;;;;;;7.72;4.28;;;12.30;76.20;;;;;;5032524;28;20044;-80
2021/07/21 03:41:25;;;;;;;7.50;4.82;;;12.30;76.70;;;;;;5024134;28;20531;-81
2021/07/21 03:43:50;;;;;;;8.25;5.38;;;12.50;76.50;;;;;;5039397;28;20025;-80
2021/07/21 03:46:16;;;;;;;7.07;4.55;;;12.30;76.40;;;;;;5027245;28;20032;-80
2021/07/21 03:48:41;;;;;;;6.50;4.55;;;12.30;76.30;;;;;;5016821;28;20036;-80
2021/07/21 03:51:07;;;;;;;11.30;5.43;;;12.20;77.30;;;;;;5019106;28;20024;-79
2021/07/21 03:53:32;;;;;;;9.95;6.00;;;12.20;75.90;;;;;;5012293;28;20382;-79
2021/07/21 03:55:58;;;;;;;6.55;4.57;;;12.20;75.90;;;;;;5055632;28;20036;-80
2021/07/21 03:58:23;;;;;;;7.85;5.28;;;12.20;76.20;;;;;;5025719;28;20051;-79
2021/07/21 04:00:55;;;;;;;12.35;7.72;;;12.20;77.30;;;;;;5031481;28;20021;-79
2021/07/21 04:03:21;;;;;;;11.10;6.60;;;12.20;76.00;;;;;;5016914;28;20029;-79
2021/07/21 04:05:47;;;;;;;10.82;6.30;;;12.10;79.70;;;;;;5017631;28;20029;-79
2021/07/21 04:08:13;;;;;;;15.05;6.97;;;11.90;83.00;;;;;;5031970;28;20029;-79
2021/07/21 04:10:38;;;;;;;12.70;6.38;;;11.90;82.10;;;;;;5040536;28;20025;-79
2021/07/21 04:13:04;;;;;;;13.77;6.22;;;11.90;80.90;;;;;;5041966;28;20449;-79
2021/07/21 04:15:29;;;;;;;10.98;6.43;;;11.90;79.30;;;;;;5039113;28;20142;-79
2021/07/21 04:17:55;;;;;;;10.20;6.68;;;11.90;78.70;;;;;;5019674;28;20028;-79
2021/07/21 04:20:21;;;;;;;14.02;7.07;;;11.90;78.30;;;;;;5027764;28;20396;-79
2021/07/21 04:22:49;;;;;;;11.00;7.05;;;12.00;78.20;;;;;;5052685;28;20120;-80
2021/07/21 04:25:15;;;;;;;12.10;7.47;;;12.00;80.70;;;;;;5030035;28;20040;-79
2021/07/21 04:27:41;;;;;;;18.23;7.32;;;11.90;81.30;;;;;;5013754;28;20032;-79
2021/07/21 04:30:07;;;;;;;10.90;6.82;;;11.90;82.80;;;;;;5033699;28;20451;-79
2021/07/21 04:32:33;;;;;;;12.07;6.18;;;12.00;83.10;;;;;;5047939;28;20025;-79
2021/07/21 04:34:58;;;;;;;13.90;7.00;;;12.00;83.70;;;;;;5046059;28;20094;-79
2021/07/21 04:37:24;;;;;;;9.73;7.20;;;12.10;84.40;;;;;;5012456;28;20069;-79
2021/07/21 04:39:51;;;;;;;12.25;7.57;;;12.20;83.70;;;;;;5013537;28;20473;-79
2021/07/21 04:42:16;;;;;;;13.27;7.55;;;12.30;84.10;;;;;;5045784;28;20042;-79
2021/07/21 04:44:42;;;;;;;13.98;7.22;;;12.40;84.80;;;;;;5017317;28;20043;-80
2021/07/21 04:47:07;;;;;;;9.90;7.75;;;12.50;84.40;;;;;;5031464;28;20446;-80
2021/07/21 04:49:36;;;;;;;10.02;7.28;;;12.60;85.40;;;;;;5045537;28;20041;-80
2021/07/21 04:52:03;;;;;;;11.40;7.10;;;12.80;84.60;;;;;;5035533;28;20119;-81
2021/07/21 04:54:29;;;;;;;11.85;7.40;;;12.90;84.00;;;;;;5025980;28;20090;-81
2021/07/21 04:56:55;;;;;;;12.55;7.07;;;13.00;84.80;;;;;;5030705;28;20471;-81
2021/07/21 04:59:21;;;;;;;12.90;6.95;;;13.10;85.80;;;;;;5044863;28;20028;-80
2021/07/21 05:01:48;;;;;;;10.95;7.00;;;13.30;85.90;;;;;;5015073;28;20399;-80
2021/07/21 05:04:14;;;;;;;13.63;8.07;;;13.40;86.70;;;;;;5034015;28;20135;-80
2021/07/21 05:06:39;;;;;;;14.63;7.60;;;13.60;85.00;;;;;;5033227;28;20056;-80
2021/07/21 05:09:06;;;;;;;9.50;6.88;;;13.80;86.40;;;;;;5030197;28;20119;-80
2021/07/21 05:11:32;;;;;;;13.35;7.47;;;13.90;84.30;;;;;;5014206;28;20039;-80
2021/07/21 05:13:57;;;;;;;7.65;6.25;;;14.10;83.30;;;;;;5031890;28;20040;-80
2021/07/21 05:16:23;;;;;;;12.15;7.07;;;14.30;83.00;;;;;;5039714;28;20028;-80
2021/07/21 05:18:48;;;;;;;11.55;6.45;;;14.40;83.10;;;;;;5035367;28;20582;-81
2021/07/21 05:21:14;;;;;;;11.63;6.40;;;14.60;83.60;;;;;;5044638;28;20040;-80
2021/07/21 05:23:40;;;;;;;7.78;6.20;;;14.80;84.30;;;;;;5029937;28;20050;-80
2021/07/21 05:26:07;;;;;;;9.98;6.63;;;14.90;84.50;;;;;;5044200;28;20530;-80
2021/07/21 05:28:34;;;;;;;11.25;6.07;;;15.10;85.70;;;;;;5025960;28;20039;-80
2021/07/21 05:31:00;;;;;;;13.38;6.68;;;15.30;86.60;;;;;;5034111;28;20111;-80
2021/07/21 05:33:26;;;;;;;11.48;6.45;;;15.50;86.00;;;;;;5041519;28;20116;-80
2021/07/21 05:35:51;;;;;;;8.68;6.30;;;15.70;86.40;;;;;;5012989;28;20079;-80
2021/07/21 05:38:17;;;;;;;10.93;6.10;;;15.90;86.80;;;;;;5041477;28;20021;-80
2021/07/21 05:40:43;;;;;;;16.95;9.00;;;16.10;86.80;;;;;;5046239;28;20036;-80
2021/07/21 05:43:08;;;;;;;13.63;7.10;;;16.30;86.10;;;;;;5016557;28;20024;-80
2021/07/21 05:45:34;;;;;;;11.80;6.65;;;16.50;85.80;;;;;;5012999;28;20051;-81
2021/07/21 05:47:59;;;;;;;9.90;5.88;;;16.70;85.40;;;;;;5031038;28;20021;-80
2021/07/21 05:50:25;;;;;;;10.65;5.90;;;16.90;85.70;;;;;;5040838;28;20060;-81
2021/07/21 05:52:50;;;;;;;11.25;7.05;;;17.10;86.50;;;;;;5014839;28;20453;-81
2021/07/21 05:55:16;;;;;;;10.88;6.05;;;17.40;86.60;;;;;;5030355;28;20119;-81
2021/07/21 05:57:44;;;;;;;11.70;6.30;;;17.60;87.40;;;;;;5016888;28;20032;-81
2021/07/21 06:00:11;;;;;;;10.43;6.10;;;17.80;87.10;;;;;;5028141;28;20036;-81
2021/07/21 06:02:36;;;;;;;9.55;6.68;;;18.10;87.40;;;;;;5024546;28;20029;-81
2021/07/21 06:05:03;;;;;;;11.70;7.25;;;18.30;87.70;;;;;;5016992;28;20055;-81
2021/07/21 06:07:29;;;;;;;8.95;6.65;;;18.50;88.00;;;;;;5039408;28;20047;-81
2021/07/21 06:09:55;;;;;;;12.35;6.03;;;18.80;88.20;;;;;;5032790;28;20055;-81
2021/07/21 06:12:20;;;;;;;9.13;5.70;;;19.00;88.00;;;;;;5023804;28;20032;-81
2021/07/21 06:14:46;;;;;;;9.40;5.70;;;19.20;88.00;;;;;;5029504;28;20387;-81
2021/07/21 06:17:11;;;;;;;7.35;5.20;;;19.50;88.00;;;;;;5028778;28;20856;-81
2021/07/21 06:19:37;;;;;;;9.18;5.13;;;19.70;88.00;;;;;;5053556;28;20559;-80
2021/07/21 06:22:03;;;;;;;9.27;4.88;;;20.00;88.00;;;;;;5032473;28;20394;-80
2021/07/21 06:24:29;;;;;;;6.40;4.35;;;20.10;87.30;;;;;;5038777;28;20045;-80
2021/07/21 06:26:55;;;;;;;8.43;5.10;;;20.30;85.10;;;;;;5015493;28;20060;-80
2021/07/21 06:29:20;;;;;;;10.02;5.22;;;20.50;85.30;;;;;;5021683;28;20412;-80
2021/07/21 06:31:46;;;;;;;8.93;4.47;;;20.80;85.60;;;;;;5019758;28;20514;-80
2021/07/21 06:34:11;;;;;;;9.55;4.65;;;20.90;84.50;;;;;;5016772;28;20039;-80
2021/07/21 06:36:37;;;;;;;9.15;4.93;;;21.00;84.10;;;;;;5043381;28;20035;-80
2021/07/21 06:39:03;;;;;;;5.80;4.18;;;21.30;83.60;;;;;;5033385;28;20028;-80
2021/07/21 06:41:28;;;;;;;6.00;4.38;;;21.50;82.70;;;;;;5046091;28;20036;-80
2021/07/21 06:43:54;;;;;;;6.90;4.35;;;21.60;82.20;;;;;;5017418;28;20060;-80
2021/07/21 06:46:20;;;;;;;5.97;4.57;;;21.80;82.40;;;;;;5043997;28;20111;-81
2021/07/21 06:48:45;;;;;;;8.05;4.75;;;22.10;81.70;;;;;;5032315;28;20548;-81
2021/07/21 06:51:11;;;;;;;6.60;4.40;;;22.20;81.00;;;;;;5014668;28;20048;-80
2021/07/21 06:53:36;;;;;;;9.70;4.13;;;22.40;80.80;;;;;;5027699;28;20480;-81
2021/07/21 06:56:03;;;;;;;5.70;3.85;;;22.60;79.80;;;;;;5047586;28;20035;-81
2021/07/21 06:58:29;;;;;;;5.85;4.07;;;22.80;80.20;;;;;;5028725;28;20498;-81
2021/07/21 07:00:54;;;;;;;5.65;4.03;;;22.90;79.70;;;;;;5044131;28;20024;-80
2021/07/21 07:03:20;;;;;;;7.80;3.90;;;23.10;78.90;;;;;;5042254;28;20120;-81
2021/07/21 07:05:47;;;;;;;6.22;3.88;;;23.40;78.50;;;;;;5048669;28;20083;-81
2021/07/21 07:08:12;;;;;;;7.40;4.43;;;23.60;76.30;;;;;;5032519;28;20032;-81
2021/07/21 07:10:38;;;;;;;5.05;3.78;;;23.80;75.80;;;;;;5034398;28;20078;-81
2021/07/21 07:13:05;;;;;;;5.20;3.53;;;23.90;74.50;;;;;;5044480;28;20073;-81
2021/07/21 07:15:31;;;;;;;10.75;4.20;;;24.10;73.50;;;;;;5044860;28;20119;-81
2021/07/21 07:17:57;;;;;;;8.57;3.97;;;24.30;73.60;;;;;;5051431;28;20025;-81
2021/07/21 07:20:22;;;;;;;6.05;3.58;;;24.40;72.70;;;;;;5027197;28;20115;-81
2021/07/21 07:22:48;;;;;;;7.93;4.05;;;24.70;71.50;;;;;;5016984;28;20063;-82
2021/07/21 07:25:14;;;;;;;6.75;3.92;;;24.70;70.80;;;;;;5045291;28;20116;-82
2021/07/21 07:27:40;;;;;;;7.18;4.25;;;24.90;70.90;;;;;;5018066;28;20024;-82
2021/07/21 07:30:06;;;;;;;8.00;3.92;;;25.10;70.20;;;;;;5033603;28;20041;-82
2021/07/21 07:32:32;;;;;;;3.85;3.45;;;25.20;69.80;;;;;;5030046;28;20040;-82
2021/07/21 07:34:58;;;;;;;8.85;3.17;;;25.30;70.50;;;;;;5017494;28;20428;-82
2021/07/21 07:37:23;;;;;;;5.18;3.90;;;25.60;70.50;;;;;;5028323;28;20075;-82
2021/07/21 07:39:49;;;;;;;4.30;3.72;;;25.70;69.20;;;;;;5022745;28;20029;-83
2021/07/21 07:42:14;;;;;;;10.55;5.25;;;25.80;68.70;;;;;;5040529;28;20033;-82
2021/07/21 07:44:40;;;;;;;8.82;5.18;;;26.10;66.30;;;;;;5015679;28;20479;-82
2021/07/21 07:47:05;;;;;;;5.72;4.68;;;26.20;66.10;;;;;;5036048;28;20039;-83
2021/07/21 07:49:31;;;;;;;5.43;4.38;;;26.40;66.00;;;;;;5031361;28;20500;-81
2021/07/21 07:51:57;;;;;;;5.55;4.43;;;26.50;65.80;;;;;;5014125;28;20453;-81
2021/07/21 07:54:23;;;;;;;8.15;3.97;;;26.70;64.60;;;;;;5028532;28;20035;-82
2021/07/21 07:56:48;;;;;;;6.82;4.53;;;26.90;64.40;;;;;;5034927;28;20472;-82
2021/07/21 07:59:14;;;;;;;7.15;4.68;;;27.00;63.30;;;;;;5015989;28;20112;-82
2021/07/21 08:01:40;;;;;;;9.38;4.50;;;27.00;62.30;;;;;;5015997;28;20481;-82
2021/07/21 08:04:05;;;;;;;7.10;4.60;;;27.30;61.50;;;;;;5030881;28;20048;-81
2021/07/21 08:06:31;;;;;;;6.70;4.28;;;27.40;61.30;;;;;;5013775;28;20040;-82
2021/07/21 08:08:56;;;;;;;8.77;5.82;;;27.40;62.40;;;;;;5032907;28;20037;-83
2021/07/21 08:11:22;;;;;;;6.90;5.38;;;27.80;60.40;;;;;;5028936;28;20401;-83
2021/07/21 08:13:47;;;;;;;6.70;5.05;;;28.10;59.90;;;;;;5043122;28;20028;-84
2021/07/21 08:16:13;;;;;;;9.73;5.15;;;28.10;59.60;;;;;;5030968;28;20041;-84
2021/07/21 08:18:38;;;;;;;9.07;5.10;;;28.30;58.50;;;;;;5012825;28;20025;-84
2021/07/21 08:21:04;;;;;;;5.55;4.43;;;28.50;58.40;;;;;;5029062;28;20429;-84
2021/07/21 08:23:30;;;;;;;8.40;4.65;;;28.60;57.00;;;;;;5038668;28;20029;-84
2021/07/21 08:25:56;;;;;;;4.25;3.17;;;28.60;57.70;;;;;;5035296;28;20400;-84
2021/07/21 08:28:21;;;;;;;9.05;5.00;;;28.50;57.80;;;;;;5027837;28;20055;-82
2021/07/21 08:30:47;;;;;;;6.70;5.68;;;28.70;58.30;;;;;;5019145;28;20033;-82
2021/07/21 08:33:12;;;;;;;6.15;4.70;;;29.00;56.20;;;;;;5038990;28;20028;-82
2021/07/21 08:35:38;;;;;;;7.43;5.25;;;29.20;54.30;;;;;;5026994;28;20025;-82
2021/07/21 08:38:04;;;;;;;8.27;4.47;;;29.50;54.40;;;;;;5042900;28;20060;-82
2021/07/21 08:40:30;;;;;;;5.72;3.88;;;29.70;54.60;;;;;;5030098;28;20398;-83
2021/07/21 08:42:55;;;;;;;8.23;5.20;;;29.70;55.60;;;;;;5038228;28;20033;-83
2021/07/21 08:45:21;;;;;;;8.23;4.40;;;29.90;53.80;;;;;;5025000;28;20025;-81
2021/07/21 08:47:47;;;;;;;7.10;4.72;;;30.20;52.00;;;;;;5016390;28;20358;-81
2021/07/21 08:50:13;;;;;;;6.43;4.07;;;30.20;52.80;;;;;;5028710;28;20086;-81
2021/07/21 08:52:38;;;;;;;7.88;4.05;;;30.50;53.50;;;;;;5018239;28;20035;-81
2021/07/21 08:55:06;;;;;;;6.10;4.63;;;30.30;53.00;;;;;;5041013;28;20157;-81
2021/07/21 08:57:32;;;;;;;5.95;3.25;;;30.60;52.00;;;;;;5026339;28;20024;-81
2021/07/21 09:00:03;;;;;;;5.28;3.80;;;30.90;50.60;;;;;;5016911;28;20037;-81
2021/07/21 09:02:30;;;;;;;5.60;4.15;;;30.90;50.20;;;;;;5042957;28;20120;-81
2021/07/21 09:04:56;;;;;;;5.32;4.00;;;30.90;48.30;;;;;;5029826;28;20190;-80
2021/07/21 09:07:22;;;;;;;5.05;3.85;;;30.90;49.60;;;;;;5026737;28;20388;-80
2021/07/21 09:09:47;;;;;;;6.20;3.92;;;30.90;49.20;;;;;;5045481;28;20025;-81
2021/07/21 09:12:13;;;;;;;8.43;4.28;;;30.70;49.10;;;;;;5042401;28;20041;-80
2021/07/21 09:14:39;;;;;;;10.57;4.75;;;30.90;47.60;;;;;;5044563;28;20025;-80
2021/07/21 09:17:08;;;;;;;4.95;4.00;;;31.00;48.00;;;;;;5047027;28;20120;-80
2021/07/21 09:19:41;;;;;;;4.93;3.90;;;30.90;48.40;;;;;;5045410;28;20139;-80
2021/07/21 09:22:20;;;;;;;6.00;4.28;;;30.80;49.20;;;;;;5046267;28;20046;-80
2021/07/21 09:25:06;;;;;;;7.35;4.47;;;30.70;48.70;;;;;;5052152;28;20127;-80
2021/07/21 09:27:32;;;;;;;6.47;3.88;;;30.80;48.10;;;;;;5042977;28;20381;-80
2021/07/21 09:29:57;;;;;;;8.73;4.70;;;30.90;47.90;;;;;;5045512;28;20043;-80
2021/07/21 09:32:23;;;;;;;4.10;3.50;;;31.00;46.40;;;;;;5026190;28;20307;-80
2021/07/21 09:34:51;;;;;;;4.78;3.72;;;30.80;47.40;;;;;;5052597;28;20115;-79
2021/07/21 09:37:17;;;;;;;7.68;4.28;;;30.80;47.90;;;;;;5054382;28;20033;-80
2021/07/21 09:39:43;;;;;;;7.07;4.43;;;31.00;48.00;;;;;;5035160;28;20025;-80
2021/07/21 09:42:09;;;;;;;7.15;4.90;;;31.20;46.90;;;;;;5028226;28;20039;-79
2021/07/21 09:44:37;;;;;;;5.95;4.70;;;31.30;45.00;;;;;;5050913;28;20120;-80
2021/07/21 09:47:31;;;;;;;12.80;4.43;;;31.30;46.30;;;;;;5014309;28;20110;-81
2021/07/21 09:50:17;;;;;;;5.30;3.83;;;31.40;46.50;;;;;;5029473;28;20101;-80
2021/07/21 09:52:47;;;;;;;8.75;4.63;;;31.40;46.40;;;;;;5052535;28;20031;-80
2021/07/21 09:55:14;;;;;;;5.57;4.22;;;31.20;47.70;;;;;;5035071;28;20091;-80
2021/07/21 09:57:40;;;;;;;7.22;4.38;;;31.40;47.70;;;;;;5043098;28;20028;-83
2021/07/21 10:00:35;;;;;;;6.50;4.55;;;31.70;45.90;;;;;;5040408;28;20500;-81
2021/07/21 10:03:06;;;;;;;8.95;4.50;;;31.80;45.60;;;;;;5014928;28;20043;-81
2021/07/21 10:05:32;;;;;;;6.60;5.13;;;32.00;45.00;;;;;;5039247;28;20045;-80
2021/07/21 10:08:03;;;;;;;7.45;4.53;;;32.00;44.40;;;;;;5021412;28;20563;-79
2021/07/21 10:10:29;;;;;;;6.65;4.32;;;32.00;44.70;;;;;;5032858;28;20036;-79
2021/07/21 10:13:02;;;;;;;8.43;4.93;;;32.00;44.40;;;;;;5036749;28;20090;-79
2021/07/21 10:15:27;;;;;;;6.35;4.55;;;31.90;44.50;;;;;;5059636;28;20504;-78
2021/07/21 10:18:09;;;;;;;5.55;4.68;;;31.70;46.00;;;;;;5036731;28;20068;-78
2021/07/21 10:20:35;;;;;;;4.72;3.97;;;31.80;45.80;;;;;;5047724;28;20476;-78
2021/07/21 10:23:01;;;;;;;6.63;3.88;;;32.10;44.50;;;;;;5036183;28;20117;-78
2021/07/21 10:25:27;;;;;;;6.60;3.83;;;32.30;44.10;;;;;;5047876;28;20479;-78
2021/07/21 10:27:54;;;;;;;6.20;4.35;;;32.30;43.90;;;;;;5029677;28;20404;-78
2021/07/21 10:30:19;;;;;;;4.88;3.83;;;32.40;42.30;;;;;;5045075;28;20091;-78
2021/07/21 10:32:45;;;;;;;5.40;3.75;;;32.40;42.70;;;;;;5056886;28;20032;-78
2021/07/21 10:35:11;;;;;;;4.95;3.72;;;32.50;43.10;;;;;;5034196;28;20037;-78
2021/07/21 10:37:36;;;;;;;5.68;3.92;;;32.50;43.00;;;;;;5039653;28;20052;-78
2021/07/21 10:40:05;;;;;;;6.53;4.30;;;32.50;42.40;;;;;;5034364;28;20036;-78
2021/07/21 10:42:31;;;;;;;5.38;4.78;;;32.50;42.50;;;;;;5036945;28;20456;-78
2021/07/21 10:45:13;;;;;;;4.97;4.35;;;32.50;42.60;;;;;;5035156;28;20081;-77
2021/07/21 10:47:48;;;;;;;6.35;4.78;;;32.60;42.90;;;;;;5020355;28;20021;-77
2021/07/21 10:53:27;;;;;;;6.63;5.40;;;32.80;42.90;;;;;;5057636;28;20032;-77
2021/07/21 10:59:11;;;;;;;5.97;4.82;;;32.90;41.60;;;;;;5048042;28;20052;-77
2021/07/21 11:01:24;;;;;;;6.40;5.07;;;33.10;41.00;;;;;;5036082;28;20399;-77
2021/07/21 11:04:00;;;;;;;10.95;5.45;;;32.90;41.50;;;;;;5057591;28;20045;-77
2021/07/21 11:06:38;;;;;;;5.70;4.07;;;33.10;41.40;;;;;;5037665;28;20021;-77
2021/07/21 11:09:17;;;;;;;6.18;4.50;;;33.10;41.90;;;;;;5034330;28;20041;-77
2021/07/21 11:11:43;;;;;;;6.82;4.80;;;33.20;42.30;;;;;;5037713;28;20503;-77
2021/07/21 11:14:10;;;;;;;5.07;4.28;;;33.20;41.70;;;;;;5036512;28;20514;-77
2021/07/21 11:16:40;;;;;;;4.65;4.05;;;33.10;42.30;;;;;;5019762;28;20064;-76
2021/07/21 11:19:43;;;;;;;5.60;4.07;;;32.80;43.40;;;;;;5031244;28;20036;-77
2021/07/21 11:22:27;;;;;;;7.43;5.10;;;32.80;43.90;;;;;;5047073;28;20043;-77
2021/07/21 11:25:11;;;;;;;6.95;4.75;;;33.20;42.50;;;;;;5016137;28;20488;-77
2021/07/21 11:27:38;;;;;;;6.03;4.15;;;33.30;42.80;;;;;;5057106;28;20029;-77
2021/07/21 11:30:04;;;;;;;7.03;5.15;;;33.70;42.00;;;;;;5036703;28;20504;-77
2021/07/21 11:32:30;;;;;;;5.68;4.30;;;33.80;41.20;;;;;;5030706;28;20032;-77
2021/07/21 11:34:56;;;;;;;5.68;4.50;;;34.00;40.90;;;;;;5031286;28;20048;-76
2021/07/21 11:37:29;;;;;;;4.82;4.25;;;34.10;41.30;;;;;;5044396;28;20037;-76
2021/07/21 11:39:56;;;;;;;6.25;5.22;;;34.20;41.20;;;;;;5045280;28;20036;-76
2021/07/21 11:42:27;;;;;;;8.38;4.45;;;34.40;40.30;;;;;;5027335;28;20404;-77
2021/07/21 11:45:06;;;;;;;6.82;4.40;;;34.60;40.10;;;;;;5043900;28;20045;-77
2021/07/21 11:47:34;;;;;;;8.18;5.53;;;34.60;39.20;;;;;;5029223;28;20032;-76
2021/07/21 11:50:00;;;;;;;6.05;4.40;;;34.90;39.10;;;;;;5020033;28;20044;-77
2021/07/21 11:52:25;;;;;;;5.85;4.68;;;34.90;39.10;;;;;;5028934;28;20028;-77
2021/07/21 11:54:51;;;;;;;7.03;5.05;;;34.90;39.40;;;;;;5059585;28;20036;-76
2021/07/21 11:57:17;;;;;;;5.38;4.60;;;34.90;39.30;;;;;;5035955;28;20381;-76
2021/07/21 11:59:43;;;;;;;5.88;4.32;;;34.90;39.20;;;;;;5034281;28;20033;-77
2021/07/21 12:02:10;;;;;;;6.05;4.78;;;34.70;39.80;;;;;;5033979;28;20469;-76
2021/07/21 12:04:41;;;;;;;8.40;5.53;;;35.00;38.60;;;;;;5014705;28;20036;-76
2021/07/21 12:07:07;;;;;;;6.25;4.50;;;35.20;38.50;;;;;;5027638;28;20044;-76
2021/07/21 12:09:34;;;;;;;6.50;5.80;;;35.30;38.10;;;;;;5030278;28;20041;-76
2021/07/21 12:12:02;;;;;;;7.28;5.80;;;35.60;37.80;;;;;;5051509;28;20032;-76
2021/07/21 12:14:27;;;;;;;6.88;5.55;;;35.80;38.00;;;;;;5033060;28;20111;-76
2021/07/21 12:16:53;;;;;;;6.60;5.45;;;35.90;37.00;;;;;;5033461;28;20120;-76
2021/07/21 12:19:25;;;;;;;5.78;4.88;;;35.80;36.60;;;;;;5041138;28;20067;-76
2021/07/21 12:22:24;;;;;;;7.78;6.15;;;35.70;36.70;;;;;;5017750;28;20028;-76
2021/07/21 12:24:54;;;;;;;8.15;6.25;;;35.80;37.30;;;;;;5007709;28;20036;-76
2021/07/21 12:27:39;;;;;;;6.35;5.32;;;36.10;37.00;;;;;;5056961;28;20037;-76
2021/07/21 12:30:15;;;;;;;9.00;5.65;;;36.40;36.70;;;;;;5019621;28;20028;-76
2021/07/21 12:32:41;;;;;;;7.43;5.63;;;36.30;36.10;;;;;;5031007;28;20028;-76
2021/07/21 12:35:08;;;;;;;6.25;5.35;;;36.20;36.60;;;;;;5045662;28;20024;-76
2021/07/21 12:37:37;;;;;;;5.47;4.97;;;36.40;36.90;;;;;;5029532;28;20035;-77
2021/07/21 12:40:07;;;;;;;5.38;4.80;;;36.40;36.40;;;;;;5047947;28;20075;-76
2021/07/21 12:42:32;;;;;;;6.20;5.40;;;36.40;36.70;;;;;;5027434;28;20071;-76
2021/07/21 12:45:06;;;;;;;7.10;5.95;;;36.30;36.40;;;;;;5034198;28;20476;-76
2021/07/21 12:47:35;;;;;;;6.28;5.15;;;36.50;35.20;;;;;;5052967;28;20531;-76
2021/07/21 12:50:08;;;;;;;5.38;4.88;;;36.60;35.60;;;;;;5052024;28;20036;-76
2021/07/21 12:52:37;;;;;;;7.78;5.63;;;36.60;35.60;;;;;;5042345;28;20488;-76
2021/07/21 12:55:06;;;;;;;6.18;4.55;;;36.80;36.30;;;;;;5034511;28;20036;-76
2021/07/21 12:57:43;;;;;;;5.82;5.00;;;36.80;35.70;;;;;;5029777;28;20037;-76